sensor_id;sensor_type;location;lat;lon;timestamp;pressure;altitude;pressure_sealevel;temperature;humidity
36726;BME280;44936;52.086;5.150;2022-11-15T00:00:52;101289.81;;;7.68;100.00
36726;BME280;44936;52.086;5.150;2022-11-15T00:03:21;101280.16;;;7.62;100.00
36726;BME280;44936;52.086;5.150;2022-11-15T00:05:46;101312.75;;;7.81;100.00
36726;BME280;44936;52.086;5.150;2022-11-15T00:08:12;101307.41;;;7.75;100.00
36726;BME280;44936;52.086;5.150;2022-11-15T00:10:37;101256.31;;;7.47;100.00
36726;BME280;44936;52.086;5.150;2022-11-15T00:13:07;101289.75;;;7.63;100.00
36726;BME280;44936;52.086;5.150;2022-11-15T00:15:39;101237.78;;;7.35;100.00
36726;BME280;44936;52.086;5.150;2022-11-15T00:18:05;101297.94;;;7.80;100.00
36726;BME280;44936;52.086;5.150;2022-11-15T00:20:33;101271.69;;;7.74;100.00
36726;BME280;44936;52.086;5.150;2022-11-15T00:22:59;101219.81;;;7.50;100.00
36726;BME280;44936;52.086;5.150;2022-11-15T00:25:25;101214.34;;;7.38;100.00
36726;BME280;44936;52.086;5.150;2022-11-15T00:27:55;101215.34;;;7.43;100.00
36726;BME280;44936;52.086;5.150;2022-11-15T00:30:20;101261.31;;;7.77;100.00
36726;BME280;44936;52.086;5.150;2022-11-15T00:32:45;101258.75;;;7.79;100.00
36726;BME280;44936;52.086;5.150;2022-11-15T00:35:11;101189.47;;;7.54;100.00
36726;BME280;44936;52.086;5.150;2022-11-15T00:37:36;101176.97;;;7.39;100.00
36726;BME280;44936;52.086;5.150;2022-11-15T00:40:02;101197.94;;;7.42;100.00
36726;BME280;44936;52.086;5.150;2022-11-15T00:42:30;101216.44;;;7.54;100.00
36726;BME280;44936;52.086;5.150;2022-11-15T00:44:56;101258.66;;;7.76;100.00
36726;BME280;44936;52.086;5.150;2022-11-15T00:47:21;101232.38;;;7.68;100.00
36726;BME280;44936;52.086;5.150;2022-11-15T00:49:47;101200.06;;;7.61;100.00
36726;BME280;44936;52.086;5.150;2022-11-15T00:52:17;101175.72;;;7.62;100.00
36726;BME280;44936;52.086;5.150;2022-11-15T00:54:45;101165.28;;;7.62;100.00
36726;BME280;44936;52.086;5.150;2022-11-15T00:57:12;101184.69;;;7.75;100.00
36726;BME280;44936;52.086;5.150;2022-11-15T00:59:37;101168.97;;;7.74;100.00
36726;BME280;44936;52.086;5.150;2022-11-15T01:02:04;101140.09;;;7.64;100.00
36726;BME280;44936;52.086;5.150;2022-11-15T01:04:31;101161.25;;;7.78;100.00
36726;BME280;44936;52.086;5.150;2022-11-15T01:06:56;101109.38;;;7.51;100.00
36726;BME280;44936;52.086;5.150;2022-11-15T01:09:21;101159.56;;;7.82;100.00
36726;BME280;44936;52.086;5.150;2022-11-15T01:11:48;101120.88;;;7.61;100.00
36726;BME280;44936;52.086;5.150;2022-11-15T01:14:14;101102.31;;;7.47;100.00
36726;BME280;44936;52.086;5.150;2022-11-15T01:16:39;101142.75;;;7.67;100.00
36726;BME280;44936;52.086;5.150;2022-11-15T01:19:05;101181.63;;;7.96;100.00
36726;BME280;44936;52.086;5.150;2022-11-15T01:21:30;101132.22;;;7.63;100.00
36726;BME280;44936;52.086;5.150;2022-11-15T01:24:00;101142.66;;;7.61;100.00
36726;BME280;44936;52.086;5.150;2022-11-15T01:26:48;101224.34;;;8.00;100.00
36726;BME280;44936;52.086;5.150;2022-11-15T01:29:27;101173.88;;;7.58;100.00
36726;BME280;44936;52.086;5.150;2022-11-15T01:31:56;101227.78;;;7.97;100.00
36726;BME280;44936;52.086;5.150;2022-11-15T01:34:22;101165.16;;;7.56;100.00
36726;BME280;44936;52.086;5.150;2022-11-15T01:36:48;101198.94;;;7.92;100.00
36726;BME280;44936;52.086;5.150;2022-11-15T01:39:13;101201.75;;;8.03;100.00
36726;BME280;44936;52.086;5.150;2022-11-15T01:41:40;101177.19;;;7.93;100.00
36726;BME280;44936;52.086;5.150;2022-11-15T01:46:56;101178.03;;;7.91;100.00
36726;BME280;44936;52.086;5.150;2022-11-15T01:49:23;101187.78;;;8.00;100.00
36726;BME280;44936;52.086;5.150;2022-11-15T01:51:49;101200.97;;;8.07;100.00
36726;BME280;44936;52.086;5.150;2022-11-15T01:54:17;101185.25;;;8.04;100.00
36726;BME280;44936;52.086;5.150;2022-11-15T01:57:09;101173.09;;;8.06;100.00
36726;BME280;44936;52.086;5.150;2022-11-15T02:00:03;101138.88;;;7.92;100.00
36726;BME280;44936;52.086;5.150;2022-11-15T02:02:36;101167.25;;;8.21;100.00
36726;BME280;44936;52.086;5.150;2022-11-15T02:05:02;101157.59;;;8.15;100.00
36726;BME280;44936;52.086;5.150;2022-11-15T02:07:31;101137.25;;;7.98;100.00
36726;BME280;44936;52.086;5.150;2022-11-15T02:10:04;101134.63;;;7.98;100.00
36726;BME280;44936;52.086;5.150;2022-11-15T02:12:33;101129.38;;;7.96;100.00
36726;BME280;44936;52.086;5.150;2022-11-15T02:14:59;101151.50;;;8.15;100.00
36726;BME280;44936;52.086;5.150;2022-11-15T02:29:19;101119.03;;;8.04;100.00
36726;BME280;44936;52.086;5.150;2022-11-15T02:31:51;101115.81;;;8.18;100.00
36726;BME280;44936;52.086;5.150;2022-11-15T02:34:39;101144.06;;;8.38;100.00
36726;BME280;44936;52.086;5.150;2022-11-15T02:37:21;101135.44;;;8.42;100.00
36726;BME280;44936;52.086;5.150;2022-11-15T02:40:00;101116.25;;;8.40;100.00
36726;BME280;44936;52.086;5.150;2022-11-15T02:42:29;101118.63;;;8.29;100.00
36726;BME280;44936;52.086;5.150;2022-11-15T02:45:20;101094.16;;;8.24;100.00
36726;BME280;44936;52.086;5.150;2022-11-15T02:47:49;101077.44;;;8.13;100.00
36726;BME280;44936;52.086;5.150;2022-11-15T02:50:20;101118.13;;;8.48;100.00
36726;BME280;44936;52.086;5.150;2022-11-15T02:52:50;101056.59;;;8.17;100.00
36726;BME280;44936;52.086;5.150;2022-11-15T02:55:31;101109.53;;;8.57;100.00
36726;BME280;44936;52.086;5.150;2022-11-15T03:01:03;101094.88;;;8.67;100.00
36726;BME280;44936;52.086;5.150;2022-11-15T03:03:57;101065.91;;;8.56;100.00
36726;BME280;44936;52.086;5.150;2022-11-15T03:12:04;101019.78;;;8.58;100.00
36726;BME280;44936;52.086;5.150;2022-11-15T03:14:36;101004.34;;;8.78;100.00
36726;BME280;44936;52.086;5.150;2022-11-15T03:19:55;101004.34;;;8.75;100.00
36726;BME280;44936;52.086;5.150;2022-11-15T03:22:24;101005.16;;;8.74;100.00
36726;BME280;44936;52.086;5.150;2022-11-15T03:24:56;101057.78;;;8.95;100.00
36726;BME280;44936;52.086;5.150;2022-11-15T03:27:25;101018.16;;;8.66;100.00
36726;BME280;44936;52.086;5.150;2022-11-15T03:30:00;100990.28;;;8.68;100.00
36726;BME280;44936;52.086;5.150;2022-11-15T03:32:29;101036.88;;;9.00;100.00
36726;BME280;44936;52.086;5.150;2022-11-15T03:35:00;101074.50;;;9.09;100.00
36726;BME280;44936;52.086;5.150;2022-11-15T03:37:41;101058.00;;;9.15;100.00
36726;BME280;44936;52.086;5.150;2022-11-15T03:40:10;101041.97;;;8.88;100.00
36726;BME280;44936;52.086;5.150;2022-11-15T03:42:43;101019.13;;;8.74;100.00
36726;BME280;44936;52.086;5.150;2022-11-15T03:45:18;101019.19;;;8.79;100.00
36726;BME280;44936;52.086;5.150;2022-11-15T03:47:49;101089.53;;;9.26;100.00
36726;BME280;44936;52.086;5.150;2022-11-15T03:50:24;101058.91;;;9.19;100.00
36726;BME280;44936;52.086;5.150;2022-11-15T03:52:57;101052.78;;;9.15;100.00
36726;BME280;44936;52.086;5.150;2022-11-15T03:55:23;101066.84;;;9.23;100.00
36726;BME280;44936;52.086;5.150;2022-11-15T03:57:51;101099.31;;;9.39;100.00
36726;BME280;44936;52.086;5.150;2022-11-15T04:00:22;101030.88;;;9.08;100.00
36726;BME280;44936;52.086;5.150;2022-11-15T04:02:48;101071.41;;;9.40;100.00
36726;BME280;44936;52.086;5.150;2022-11-15T04:05:37;100966.41;;;9.15;100.00
36726;BME280;44936;52.086;5.150;2022-11-15T04:08:03;100975.25;;;9.25;100.00
36726;BME280;44936;52.086;5.150;2022-11-15T04:10:29;100987.31;;;9.11;100.00
36726;BME280;44936;52.086;5.150;2022-11-15T04:12:54;101002.09;;;9.07;100.00
36726;BME280;44936;52.086;5.150;2022-11-15T04:15:26;100968.06;;;9.05;100.00
36726;BME280;44936;52.086;5.150;2022-11-15T04:17:56;100983.09;;;9.25;100.00
36726;BME280;44936;52.086;5.150;2022-11-15T04:20:26;101008.47;;;9.29;100.00
36726;BME280;44936;52.086;5.150;2022-11-15T04:23:19;101025.84;;;9.25;100.00
36726;BME280;44936;52.086;5.150;2022-11-15T04:26:16;101028.53;;;9.28;100.00
36726;BME280;44936;52.086;5.150;2022-11-15T04:28:50;100980.19;;;9.00;100.00
36726;BME280;44936;52.086;5.150;2022-11-15T04:31:43;101003.03;;;9.14;100.00
36726;BME280;44936;52.086;5.150;2022-11-15T04:34:08;101035.53;;;9.31;100.00
36726;BME280;44936;52.086;5.150;2022-11-15T04:36:36;101006.44;;;9.05;100.00
36726;BME280;44936;52.086;5.150;2022-11-15T04:39:21;101033.56;;;9.13;100.00
36726;BME280;44936;52.086;5.150;2022-11-15T04:41:49;101088.00;;;9.42;100.00
36726;BME280;44936;52.086;5.150;2022-11-15T04:44:20;101059.00;;;9.25;100.00
36726;BME280;44936;52.086;5.150;2022-11-15T04:46:46;101025.53;;;8.99;100.00
36726;BME280;44936;52.086;5.150;2022-11-15T04:49:15;101043.91;;;9.02;100.00
36726;BME280;44936;52.086;5.150;2022-11-15T04:51:40;101015.13;;;9.02;100.00
36726;BME280;44936;52.086;5.150;2022-11-15T04:54:08;101027.44;;;9.11;100.00
36726;BME280;44936;52.086;5.150;2022-11-15T04:56:35;100991.63;;;9.05;100.00
36726;BME280;44936;52.086;5.150;2022-11-15T04:59:01;100987.25;;;9.06;100.00
36726;BME280;44936;52.086;5.150;2022-11-15T05:01:27;100957.69;;;9.12;100.00
36726;BME280;44936;52.086;5.150;2022-11-15T05:03:52;100976.19;;;9.30;100.00
36726;BME280;44936;52.086;5.150;2022-11-15T05:06:36;100927.19;;;9.18;100.00
36726;BME280;44936;52.086;5.150;2022-11-15T05:09:05;100946.53;;;9.34;100.00
36726;BME280;44936;52.086;5.150;2022-11-15T05:11:30;100901.94;;;9.20;100.00
36726;BME280;44936;52.086;5.150;2022-11-15T05:13:59;100943.16;;;9.44;100.00
36726;BME280;44936;52.086;5.150;2022-11-15T05:16:27;100985.25;;;9.64;100.00
36726;BME280;44936;52.086;5.150;2022-11-15T05:18:54;100966.78;;;9.49;100.00
36726;BME280;44936;52.086;5.150;2022-11-15T05:21:22;101018.50;;;9.74;100.00
36726;BME280;44936;52.086;5.150;2022-11-15T05:23:54;101024.63;;;9.76;100.00
36726;BME280;44936;52.086;5.150;2022-11-15T05:26:31;100971.13;;;9.47;100.00
36726;BME280;44936;52.086;5.150;2022-11-15T05:29:02;100994.88;;;9.68;100.00
36726;BME280;44936;52.086;5.150;2022-11-15T05:31:28;100960.69;;;9.53;100.00
36726;BME280;44936;52.086;5.150;2022-11-15T05:33:56;100972.09;;;9.56;100.00
36726;BME280;44936;52.086;5.150;2022-11-15T05:36:31;101033.59;;;10.00;100.00
36726;BME280;44936;52.086;5.150;2022-11-15T05:39:06;101007.16;;;9.75;100.00
36726;BME280;44936;52.086;5.150;2022-11-15T05:41:39;101013.28;;;9.77;100.00
36726;BME280;44936;52.086;5.150;2022-11-15T05:44:12;101068.56;;;10.06;100.00
36726;BME280;44936;52.086;5.150;2022-11-15T05:46:40;101071.88;;;9.88;100.00
36726;BME280;44936;52.086;5.150;2022-11-15T05:49:12;101106.00;;;9.91;100.00
36726;BME280;44936;52.086;5.150;2022-11-15T05:51:39;101120.09;;;10.06;100.00
36726;BME280;44936;52.086;5.150;2022-11-15T05:54:06;101109.53;;;9.95;100.00
36726;BME280;44936;52.086;5.150;2022-11-15T05:56:32;101056.94;;;9.74;100.00
36726;BME280;44936;52.086;5.150;2022-11-15T05:58:58;101134.94;;;10.04;100.00
36726;BME280;44936;52.086;5.150;2022-11-15T06:01:26;101117.44;;;10.00;100.00
36726;BME280;44936;52.086;5.150;2022-11-15T06:03:52;101092.91;;;9.93;100.00
36726;BME280;44936;52.086;5.150;2022-11-15T06:06:17;101074.47;;;9.82;100.00
36726;BME280;44936;52.086;5.150;2022-11-15T06:08:48;101132.56;;;10.25;100.00
36726;BME280;44936;52.086;5.150;2022-11-15T07:14:00;101069.25;;;9.87;100.00
36726;BME280;44936;52.086;5.150;2022-11-15T07:19:20;101049.94;;;9.76;100.00
36726;BME280;44936;52.086;5.150;2022-11-15T07:22:25;101063.94;;;9.79;100.00
36726;BME280;44936;52.086;5.150;2022-11-15T07:24:59;101057.88;;;9.82;100.00
36726;BME280;44936;52.086;5.150;2022-11-15T07:55:06;101080.25;;;9.52;100.00
36726;BME280;44936;52.086;5.150;2022-11-15T08:00:36;101027.09;;;9.61;100.00
36726;BME280;44936;52.086;5.150;2022-11-15T08:03:12;101075.53;;;10.04;100.00
36726;BME280;44936;52.086;5.150;2022-11-15T08:05:51;101015.94;;;9.80;100.00
36726;BME280;44936;52.086;5.150;2022-11-15T08:08:21;101021.28;;;9.91;100.00
36726;BME280;44936;52.086;5.150;2022-11-15T08:10:50;101037.88;;;9.91;100.00
36726;BME280;44936;52.086;5.150;2022-11-15T08:13:16;101029.97;;;9.87;100.00
36726;BME280;44936;52.086;5.150;2022-11-15T08:16:07;101059.91;;;10.15;100.00
36726;BME280;44936;52.086;5.150;2022-11-15T08:18:37;101045.75;;;9.93;100.00
36726;BME280;44936;52.086;5.150;2022-11-15T08:21:19;101119.47;;;10.25;100.00
36726;BME280;44936;52.086;5.150;2022-11-15T08:23:52;101144.03;;;10.41;100.00
36726;BME280;44936;52.086;5.150;2022-11-15T08:29:03;101146.66;;;10.39;100.00
36726;BME280;44936;52.086;5.150;2022-11-15T08:31:50;101159.81;;;10.42;100.00
36726;BME280;44936;52.086;5.150;2022-11-15T08:34:51;101084.31;;;10.08;100.00
36726;BME280;44936;52.086;5.150;2022-11-15T08:37:28;101144.09;;;10.42;100.00
36726;BME280;44936;52.086;5.150;2022-11-15T08:43:19;101122.25;;;10.46;100.00
36726;BME280;44936;52.086;5.150;2022-11-15T08:46:13;101136.22;;;10.45;100.00
36726;BME280;44936;52.086;5.150;2022-11-15T08:49:04;101090.50;;;10.16;100.00
36726;BME280;44936;52.086;5.150;2022-11-15T08:51:58;101124.78;;;10.34;100.00
36726;BME280;44936;52.086;5.150;2022-11-15T08:55:12;101127.50;;;10.46;100.00
36726;BME280;44936;52.086;5.150;2022-11-15T11:44:30;101022.75;;;10.74;100.00
36726;BME280;44936;52.086;5.150;2022-11-15T11:47:15;101002.66;;;10.77;100.00
36726;BME280;44936;52.086;5.150;2022-11-15T11:50:26;101007.09;;;10.91;100.00
36726;BME280;44936;52.086;5.150;2022-11-15T11:53:33;100994.00;;;10.97;100.00
36726;BME280;44936;52.086;5.150;2022-11-15T11:56:24;100979.09;;;10.94;100.00
36726;BME280;44936;52.086;5.150;2022-11-15T11:59:02;100971.25;;;10.96;100.00
36726;BME280;44936;52.086;5.150;2022-11-15T12:01:41;100985.31;;;11.15;100.00
36726;BME280;44936;52.086;5.150;2022-11-15T12:04:24;101018.66;;;11.42;100.00
36726;BME280;44936;52.086;5.150;2022-11-15T12:09:30;101037.03;;;11.43;100.00
36726;BME280;44936;52.086;5.150;2022-11-15T12:12:12;101035.28;;;11.45;100.00
36726;BME280;44936;52.086;5.150;2022-11-15T12:15:03;100996.75;;;11.35;100.00
36726;BME280;44936;52.086;5.150;2022-11-15T12:17:51;100961.72;;;11.24;100.00
36726;BME280;44936;52.086;5.150;2022-11-15T12:20:39;100984.50;;;11.40;100.00
36726;BME280;44936;52.086;5.150;2022-11-15T12:23:13;100962.59;;;11.27;100.00
36726;BME280;44936;52.086;5.150;2022-11-15T12:26:00;101001.16;;;11.59;100.00
36726;BME280;44936;52.086;5.150;2022-11-15T12:28:46;100935.44;;;11.25;100.00
36726;BME280;44936;52.086;5.150;2022-11-15T12:31:23;100937.19;;;11.25;100.00
36726;BME280;44936;52.086;5.150;2022-11-15T12:33:55;100944.22;;;11.41;100.00
36726;BME280;44936;52.086;5.150;2022-11-15T12:39:09;100969.63;;;11.65;100.00
36726;BME280;44936;52.086;5.150;2022-11-15T12:49:45;100936.38;;;11.76;100.00
36726;BME280;44936;52.086;5.150;2022-11-15T12:52:27;100880.31;;;11.39;100.00
36726;BME280;44936;52.086;5.150;2022-11-15T12:54:59;100927.59;;;11.73;100.00
36726;BME280;44936;52.086;5.150;2022-11-15T12:57:45;100860.19;;;11.37;100.00
36726;BME280;44936;52.086;5.150;2022-11-15T13:02:40;100876.81;;;11.54;100.00
36726;BME280;44936;52.086;5.150;2022-11-15T13:10:34;100836.56;;;11.33;100.00
36726;BME280;44936;52.086;5.150;2022-11-15T13:16:05;100830.44;;;11.24;100.00
36726;BME280;44936;52.086;5.150;2022-11-15T13:18:40;100826.91;;;11.19;100.00
36726;BME280;44936;52.086;5.150;2022-11-15T13:21:21;100870.69;;;11.44;100.00
36726;BME280;44936;52.086;5.150;2022-11-15T13:24:26;100822.56;;;11.16;100.00
36726;BME280;44936;52.086;5.150;2022-11-15T13:26:52;100868.94;;;11.29;100.00
36726;BME280;44936;52.086;5.150;2022-11-15T13:29:19;100844.41;;;11.18;100.00
36726;BME280;44936;52.086;5.150;2022-11-15T13:31:46;100834.78;;;11.17;100.00
36726;BME280;44936;52.086;5.150;2022-11-15T13:34:40;100817.28;;;11.09;100.00
36726;BME280;44936;52.086;5.150;2022-11-15T13:39:51;100856.66;;;11.28;100.00
36726;BME280;44936;52.086;5.150;2022-11-15T13:42:26;100854.91;;;11.20;100.00
36726;BME280;44936;52.086;5.150;2022-11-15T13:44:59;100821.66;;;11.03;100.00
36726;BME280;44936;52.086;5.150;2022-11-15T13:47:26;100790.16;;;10.88;100.00
36726;BME280;44936;52.086;5.150;2022-11-15T13:50:00;100825.16;;;11.09;100.00
36726;BME280;44936;52.086;5.150;2022-11-15T13:52:33;100811.16;;;10.91;100.00
36726;BME280;44936;52.086;5.150;2022-11-15T13:55:15;100830.41;;;11.10;100.00
36726;BME280;44936;52.086;5.150;2022-11-15T14:03:06;100750.81;;;10.87;100.00
36726;BME280;44936;52.086;5.150;2022-11-15T14:05:35;100819.03;;;11.19;100.00
36726;BME280;44936;52.086;5.150;2022-11-15T14:08:05;100746.41;;;10.84;100.00
36726;BME280;44936;52.086;5.150;2022-11-15T14:10:39;100736.81;;;10.80;100.00
36726;BME280;44936;52.086;5.150;2022-11-15T14:16:35;100778.78;;;11.21;100.00
36726;BME280;44936;52.086;5.150;2022-11-15T14:19:02;100714.06;;;10.84;100.00
36726;BME280;44936;52.086;5.150;2022-11-15T14:21:28;100750.78;;;11.10;100.00
36726;BME280;44936;52.086;5.150;2022-11-15T14:24:20;100763.91;;;11.22;100.00
36726;BME280;44936;52.086;5.150;2022-11-15T14:26:47;100754.28;;;11.18;100.00
36726;BME280;44936;52.086;5.150;2022-11-15T14:29:32;100764.81;;;11.22;100.00
36726;BME280;44936;52.086;5.150;2022-11-15T14:32:23;100728.91;;;11.23;100.00
36726;BME280;44936;52.086;5.150;2022-11-15T14:35:14;100721.03;;;11.18;100.00
36726;BME280;44936;52.086;5.150;2022-11-15T14:37:39;100714.03;;;11.13;100.00
36726;BME280;44936;52.086;5.150;2022-11-15T14:40:06;100679.06;;;10.98;100.00
36726;BME280;44936;52.086;5.150;2022-11-15T14:42:32;100686.94;;;11.04;100.00
36726;BME280;44936;52.086;5.150;2022-11-15T14:45:00;100689.56;;;10.97;100.00
36726;BME280;44936;52.086;5.150;2022-11-15T14:47:26;100693.91;;;11.12;100.00
36726;BME280;44936;52.086;5.150;2022-11-15T14:49:51;100683.44;;;11.05;100.00
36726;BME280;44936;52.086;5.150;2022-11-15T14:52:31;100677.31;;;11.06;100.00
36726;BME280;44936;52.086;5.150;2022-11-15T14:55:03;100681.69;;;11.15;100.00
36726;BME280;44936;52.086;5.150;2022-11-15T14:57:29;100653.69;;;11.00;100.00
36726;BME280;44936;52.086;5.150;2022-11-15T14:59:58;100667.69;;;11.02;100.00
36726;BME280;44936;52.086;5.150;2022-11-15T15:02:26;100657.19;;;11.04;100.00
36726;BME280;44936;52.086;5.150;2022-11-15T15:04:52;100672.06;;;11.14;100.00
36726;BME280;44936;52.086;5.150;2022-11-15T15:07:19;100629.25;;;10.80;100.00
36726;BME280;44936;52.086;5.150;2022-11-15T15:09:46;100659.81;;;11.02;100.00
36726;BME280;44936;52.086;5.150;2022-11-15T15:12:19;100679.03;;;11.17;100.00
36726;BME280;44936;52.086;5.150;2022-11-15T15:14:47;100612.63;;;10.81;100.00
36726;BME280;44936;52.086;5.150;2022-11-15T15:17:13;100627.47;;;10.85;100.00
36726;BME280;44936;52.086;5.150;2022-11-15T15:19:40;100656.31;;;11.10;100.00
36726;BME280;44936;52.086;5.150;2022-11-15T15:22:31;100607.38;;;10.83;100.00
36726;BME280;44936;52.086;5.150;2022-11-15T15:24:56;100615.22;;;10.86;100.00
36726;BME280;44936;52.086;5.150;2022-11-15T15:27:24;100642.34;;;10.97;100.00
36726;BME280;44936;52.086;5.150;2022-11-15T15:29:49;100624.84;;;10.91;100.00
36726;BME280;44936;52.086;5.150;2022-11-15T15:32:15;100574.16;;;10.65;100.00
36726;BME280;44936;52.086;5.150;2022-11-15T15:34:40;100560.22;;;10.54;100.00
36726;BME280;44936;52.086;5.150;2022-11-15T15:37:27;100596.91;;;10.73;100.00
36726;BME280;44936;52.086;5.150;2022-11-15T15:39:55;100568.91;;;10.68;100.00
36726;BME280;44936;52.086;5.150;2022-11-15T15:42:21;100589.00;;;10.76;100.00
36726;BME280;44936;52.086;5.150;2022-11-15T15:44:50;100594.25;;;10.87;100.00
36726;BME280;44936;52.086;5.150;2022-11-15T15:47:21;100577.69;;;10.62;100.00
36726;BME280;44936;52.086;5.150;2022-11-15T15:49:48;100601.25;;;10.88;100.00
36726;BME280;44936;52.086;5.150;2022-11-15T15:52:14;100591.63;;;10.89;100.00
36726;BME280;44936;52.086;5.150;2022-11-15T15:54:40;100565.44;;;10.61;100.00
36726;BME280;44936;52.086;5.150;2022-11-15T15:57:07;100541.84;;;10.54;100.00
36726;BME280;44936;52.086;5.150;2022-11-15T15:59:34;100551.44;;;10.64;100.00
36726;BME280;44936;52.086;5.150;2022-11-15T16:02:02;100612.56;;;11.07;100.00
36726;BME280;44936;52.086;5.150;2022-11-15T16:04:30;100546.19;;;10.68;100.00
36726;BME280;44936;52.086;5.150;2022-11-15T16:07:00;100586.38;;;10.89;100.00
36726;BME280;44936;52.086;5.150;2022-11-15T16:09:25;100568.03;;;10.76;100.00
36726;BME280;44936;52.086;5.150;2022-11-15T16:12:10;100592.50;;;10.91;100.00
36726;BME280;44936;52.086;5.150;2022-11-15T16:14:38;100575.91;;;10.78;100.00
36726;BME280;44936;52.086;5.150;2022-11-15T16:17:04;100567.16;;;10.73;100.00
36726;BME280;44936;52.086;5.150;2022-11-15T16:19:31;100532.22;;;10.59;100.00
36726;BME280;44936;52.086;5.150;2022-11-15T16:22:00;100526.09;;;10.58;100.00
36726;BME280;44936;52.086;5.150;2022-11-15T16:24:49;100543.53;;;10.74;100.00
36726;BME280;44936;52.086;5.150;2022-11-15T16:27:20;100554.91;;;10.80;100.00
36726;BME280;44936;52.086;5.150;2022-11-15T16:29:48;100573.22;;;10.93;100.00
36726;BME280;44936;52.086;5.150;2022-11-15T16:34:57;100572.38;;;10.84;100.00
36726;BME280;44936;52.086;5.150;2022-11-15T16:37:23;100510.38;;;10.41;100.00
36726;BME280;44936;52.086;5.150;2022-11-15T16:39:50;100577.63;;;10.77;100.00
36726;BME280;44936;52.086;5.150;2022-11-15T16:42:15;100570.69;;;10.70;100.00
36726;BME280;44936;52.086;5.150;2022-11-15T16:44:44;100588.16;;;10.73;100.00
36726;BME280;44936;52.086;5.150;2022-11-15T16:47:36;100592.53;;;10.62;100.00
36726;BME280;44936;52.086;5.150;2022-11-15T16:50:03;100565.47;;;10.52;100.00
36726;BME280;44936;52.086;5.150;2022-11-15T16:52:30;100582.94;;;10.52;100.00
36726;BME280;44936;52.086;5.150;2022-11-15T17:02:57;100479.84;;;10.10;100.00
36726;BME280;44936;52.086;5.150;2022-11-15T17:05:26;100458.84;;;10.07;100.00
36726;BME280;44936;52.086;5.150;2022-11-15T17:07:52;100441.41;;;10.00;100.00
36726;BME280;44936;52.086;5.150;2022-11-15T17:10:20;100478.97;;;10.35;100.00
36726;BME280;44936;52.086;5.150;2022-11-15T17:12:45;100458.84;;;10.37;100.00
36726;BME280;44936;52.086;5.150;2022-11-15T17:15:12;100399.47;;;10.10;100.00
36726;BME280;44936;52.086;5.150;2022-11-15T17:17:56;100422.16;;;10.30;100.00
36726;BME280;44936;52.086;5.150;2022-11-15T17:20:23;100415.16;;;10.32;100.00
36726;BME280;44936;52.086;5.150;2022-11-15T17:22:50;100347.97;;;9.92;100.00
36726;BME280;44936;52.086;5.150;2022-11-15T17:25:17;100381.09;;;10.30;100.00
36726;BME280;44936;52.086;5.150;2022-11-15T17:27:43;100379.38;;;10.26;100.00
36726;BME280;44936;52.086;5.150;2022-11-15T17:30:11;100340.09;;;10.09;100.00
36726;BME280;44936;52.086;5.150;2022-11-15T17:32:40;100360.16;;;10.26;100.00
36726;BME280;44936;52.086;5.150;2022-11-15T17:35:07;100346.16;;;10.19;100.00
36726;BME280;44936;52.086;5.150;2022-11-15T17:37:33;100346.19;;;10.25;100.00
36726;BME280;44936;52.086;5.150;2022-11-15T17:39:59;100309.50;;;10.11;100.00
36726;BME280;44936;52.086;5.150;2022-11-15T17:42:25;100292.88;;;10.14;100.00
36726;BME280;44936;52.086;5.150;2022-11-15T17:44:51;100293.75;;;10.22;100.00
36726;BME280;44936;52.086;5.150;2022-11-15T17:47:17;100235.31;;;9.97;100.00
36726;BME280;44936;52.086;5.150;2022-11-15T17:49:43;100258.81;;;10.14;100.00
36726;BME280;44936;52.086;5.150;2022-11-15T17:52:08;100264.94;;;10.14;100.00
36726;BME280;44936;52.086;5.150;2022-11-15T17:54:35;100210.88;;;10.00;100.00
36726;BME280;44936;52.086;5.150;2022-11-15T17:57:02;100243.97;;;10.22;100.00
36726;BME280;44936;52.086;5.150;2022-11-15T17:59:28;100228.22;;;10.19;100.00
36726;BME280;44936;52.086;5.150;2022-11-15T18:01:55;100165.47;;;9.94;100.00
36726;BME280;44936;52.086;5.150;2022-11-15T18:04:43;100201.16;;;10.26;100.00
36726;BME280;44936;52.086;5.150;2022-11-15T18:07:09;100167.97;;;10.13;100.00
36726;BME280;44936;52.086;5.150;2022-11-15T18:09:52;100149.66;;;10.07;100.00
36726;BME280;44936;52.086;5.150;2022-11-15T18:12:17;100180.19;;;10.26;100.00
36726;BME280;44936;52.086;5.150;2022-11-15T18:14:43;100113.06;;;9.94;100.00
36726;BME280;44936;52.086;5.150;2022-11-15T18:17:12;100106.09;;;9.95;100.00
36726;BME280;44936;52.086;5.150;2022-11-15T18:19:37;100133.94;;;10.07;100.00
36726;BME280;44936;52.086;5.150;2022-11-15T18:22:03;100160.00;;;10.33;100.00
36726;BME280;44936;52.086;5.150;2022-11-15T18:24:31;100151.28;;;10.32;100.00
36726;BME280;44936;52.086;5.150;2022-11-15T18:27:17;100145.19;;;10.30;100.00
36726;BME280;44936;52.086;5.150;2022-11-15T18:29:42;100122.50;;;10.21;100.00
36726;BME280;44936;52.086;5.150;2022-11-15T18:32:09;100133.88;;;10.27;100.00
36726;BME280;44936;52.086;5.150;2022-11-15T18:34:45;100159.09;;;10.40;100.00
36726;BME280;44936;52.086;5.150;2022-11-15T18:37:11;100153.88;;;10.38;100.00
36726;BME280;44936;52.086;5.150;2022-11-15T18:39:43;100125.13;;;10.28;100.00
36726;BME280;44936;52.086;5.150;2022-11-15T18:42:08;100146.97;;;10.27;100.00
36726;BME280;44936;52.086;5.150;2022-11-15T18:44:34;100111.22;;;10.12;100.00
36726;BME280;44936;52.086;5.150;2022-11-15T18:47:02;100115.53;;;10.20;100.00
36726;BME280;44936;52.086;5.150;2022-11-15T18:49:37;100107.69;;;10.14;100.00
36726;BME280;44936;52.086;5.150;2022-11-15T18:52:02;100155.56;;;10.45;100.00